• Join FlightAware (Why Join?)
  • Login
  • US Flag 
09:50PM EDT


 

Airport Tracker/Info


-or-


 

Live Flight TrackerFlight Track Log ✈ JBU767 ✈ 12-Apr-2013 ✈ KMCO - TJPS / PSE

Flight Track Log - Related Links

Times and Time Zones

All times are in EDT time to prevent confusion due to time zone crossing. See the JBU767 flight status page for this flight to view local times or setup timezone preferences in your user account.

Time Position Orientation Groundspeed Altitude Reporting Facility
EDT Latitude Longitude Course Direction KTS MPH feet Rate Location/Type
11:17PM 28.4167 -81.3167 149° Southeast 156 180 800  Level Orlando TRACON
11:18PM 28.3833 -81.2833 139° Southeast 202 232 1,900 1,500 Climbing Orlando TRACON
11:19PM 28.3500 -81.2333 127° Southeast 257 296 3,600 2,760 Climbing Orlando TRACON
11:20PM 28.2080 -80.9434 148° Southeast  Level Estimated
11:21PM 28.1340 -80.8218 146° Southeast  Level Estimated
11:21PM 28.1978 -81.1158 146° Southeast 283 326 11,100  Level Miami Center
11:22PM 28.0598 -80.7004 152° Southeast  Level Estimated
11:22PM 28.1286 -81.0614 145° Southeast 298 343 12,200  Level Miami Center
11:23PM 27.9856 -80.5792 149° Southeast  Level Estimated
11:23PM 28.0728 -80.9700 125° Southeast 326 375 14,300  Level Miami Center
11:24PM 28.0169 -80.8739 123° Southeast 357 411 16,300 1,800 Climbing Miami Center
11:25PM 27.9594 -80.7683 122° Southeast 385 443 18,100 1,920 Climbing Miami Center
11:26PM 27.8997 -80.6631 123° Southeast 395 455 20,200 1,620 Climbing Miami Center
11:27PM 27.8375 -80.5622 125° Southeast 405 466 21,300 1,320 Climbing Miami Center
11:28PM 27.7736 -80.4522 123° Southeast 422 486 23,000 1,560 Climbing Miami Center
11:29PM 27.7056 -80.3353 123° Southeast 433 498 24,500 1,440 Climbing Miami Center
11:30PM 27.6372 -80.2183 123° Southeast 439 505 25,900 1,260 Climbing Miami Center
11:31PM 27.5669 -80.0992 124° Southeast 450 518 27,200 1,140 Climbing Miami Center
11:32PM 27.4986 -79.9778 122° Southeast 455 524 28,200 960 Climbing Miami Center
11:33PM 27.4300 -79.8567 123° Southeast 455 524 29,200 960 Climbing Miami Center
11:34PM 27.3575 -79.7331 123° Southeast 472 543 30,200 1,080 Climbing Miami Center
11:35PM 27.2744 -79.5931 124° Southeast 483 556 31,400 1,140 Climbing Miami Center
11:36PM 27.1997 -79.4675 124° Southeast 483 556 32,500 1,080 Climbing Miami Center
11:37PM 27.1286 -79.3447 123° Southeast 478 550 33,600 1,140 Climbing Miami Center
11:38PM 27.0533 -79.2217 124° Southeast 472 543 34,900 960 Climbing Miami Center
11:39PM 26.9842 -79.1039 123° Southeast 472 543 35,600 660 Climbing Miami Center
11:40PM 26.9131 -78.9836 124° Southeast 472 543 36,300 600 Climbing Miami Center
11:41PM 26.8417 -78.8636 124° Southeast 472 543 36,800 300 Climbing Miami Center
11:42PM 26.7761 -78.7578 125° Southeast 472 543 37,000 60 Climbing Miami Center
11:43PM 26.6900 -78.6308 127° Southeast 461 531 37,000  Level Miami Center
11:44PM 26.6206 -78.4997 121° Southeast 475 547 37,000  Level Miami Center
11:45PM 26.5467 -78.3756 124° Southeast 475 547 37,000  Level Miami Center
11:46PM 26.4686 -78.2539 126° Southeast 475 547 37,000  Level Miami Center
11:47PM 26.3903 -78.1300 125° Southeast 475 547 37,000  Level Miami Center
11:48PM 26.3161 -77.9992 122° Southeast 480 552 37,000  Level Miami Center
11:49PM 26.2417 -77.8781 124° Southeast 480 552 37,000  Level Miami Center
11:50PM 26.1631 -77.7525 125° Southeast 487 560 37,000  Level Miami Center
11:51PM 26.0825 -77.6269 126° Southeast 492 566 37,000  Level Miami Center
11:52PM 26.0078 -77.4969 123° Southeast 492 566 37,000  Level Miami Center
11:53PM 25.9350 -77.3833 125° Southeast 498 573 37,000  Level Miami Center
11:54PM 25.8561 -77.2558 124° Southeast 503 579 37,000  Level Miami Center
11:55PM 25.7769 -77.1264 124° Southeast 503 579 37,000  Level Miami Center
11:56PM 25.6914 -76.9903 125° Southeast 503 579 37,000  Level Miami Center
11:57PM 25.6100 -76.8633 125° Southeast 498 573 37,000  Level Miami Center
11:58PM 25.5283 -76.7322 125° Southeast 498 573 37,000  Level Miami Center
11:59PM 25.4489 -76.6033 124° Southeast 504 580 37,000  Level Miami Center
12:00AM 25.3692 -76.4769 125° Southeast 504 580 37,000  Level Miami Center
12:01AM 25.2853 -76.3508 126° Southeast 504 580 37,000  Level Miami Center
12:02AM 25.2053 -76.2225 125° Southeast 504 580 37,000  Level Miami Center
12:03AM 25.1253 -76.0989 126° Southeast 498 573 37,000  Level Miami Center
12:04AM 25.0472 -75.9711 124° Southeast 498 573 37,000  Level Miami Center
12:05AM 24.9650 -75.8456 126° Southeast 498 573 37,000  Level Miami Center
12:06AM 24.8908 -75.7339 126° Southeast 503 579 37,000  Level Miami Center
12:07AM 24.8106 -75.6042 124° Southeast 503 579 37,000  Level Miami Center
12:08AM 24.7278 -75.4792 126° Southeast 503 579 37,000  Level Miami Center
12:09AM 24.6472 -75.3544 125° Southeast 503 579 37,000  Level Miami Center
12:10AM 24.5644 -75.2250 125° Southeast 503 579 37,000  Level Miami Center
12:11AM 24.4836 -75.1006 125° Southeast 508 585 37,000  Level Miami Center
12:12AM 24.4006 -74.9739 126° Southeast 508 585 37,000  Level Miami Center
12:13AM 24.3194 -74.8497 126° Southeast 508 585 37,000  Level Miami Center
12:14AM 24.2361 -74.7258 126° Southeast 508 585 37,000  Level Miami Center
12:15AM 24.1483 -74.5883 125° Southeast 508 585 37,000  Level Miami Center
12:16AM 24.0631 -74.4647 127° Southeast 508 585 37,000  Level Miami Center
12:17AM 23.9836 -74.3389 125° Southeast 508 585 37,000  Level Miami Center
12:18AM 23.9019 -74.2181 126° Southeast 502 578 37,000  Level Miami Center
12:19AM 23.8203 -74.0947 126° Southeast 502 578 37,000  Level Miami Center
12:20AM 23.7386 -73.9694 125° Southeast 497 572 37,000  Level Miami Center
12:21AM 23.6525 -73.8467 127° Southeast 502 578 37,000  Level Miami Center
12:22AM 23.5708 -73.7264 127° Southeast 502 578 37,000  Level Miami Center
12:23AM 23.4867 -73.6014 126° Southeast 501 577 37,000  Level Miami Center
12:24AM 23.4025 -73.4792 127° Southeast 501 577 37,000  Level Miami Center
12:25AM 23.3222 -73.3525 125° Southeast 506 582 37,000  Level Miami Center
12:26AM 23.2294 -73.2283 129° Southeast 511 588 37,000  Level Miami Center
12:27AM 23.1492 -73.1042 125° Southeast 511 588 37,000  Level Miami Center
12:28AM 23.0686 -72.9800 125° Southeast 511 588 37,000  Level Miami Center
12:29AM 22.9883 -72.8564 125° Southeast 506 582 37,000  Level Miami Center
12:30AM 22.9014 -72.7350 128° Southeast 506 582 37,000  Level Miami Center
12:31AM 22.8167 -72.6117 127° Southeast 511 588 37,000  Level Miami Center
12:32AM 22.7336 -72.4883 126° Southeast 516 594 37,000  Level Miami Center
12:33AM 22.6464 -72.3631 127° Southeast 516 594 37,000  Level Miami Center
12:34AM 22.5614 -72.2378 126° Southeast 516 594 37,000  Level Miami Center
12:35AM 22.4761 -72.1128 126° Southeast 516 594 37,000  Level Miami Center
12:36AM 22.3906 -71.9881 127° Southeast 516 594 37,000  Level Miami Center
12:37AM 22.3075 -71.8656 126° Southeast 516 594 37,000  Level Miami Center
12:38AM 22.2197 -71.7411 127° Southeast 516 594 37,000  Level Miami Center
12:39AM 22.1319 -71.6167 127° Southeast 516 594 37,000  Level Miami Center
12:40AM 22.0486 -71.4947 126° Southeast 516 594 37,000  Level Miami Center
12:41AM 21.9628 -71.3731 127° Southeast 516 594 37,000  Level Miami Center
12:42AM 21.8747 -71.2492 127° Southeast 516 594 37,000  Level Miami Center
12:43AM 21.8086 -71.1492 125° Southeast 516 594 37,000  Level Miami Center
12:44AM 21.7117 -71.0150 128° Southeast 516 594 37,000  Level Miami Center
12:45AM 21.6256 -70.8894 126° Southeast 516 594 37,000  Level Miami Center
12:46AM 21.5372 -70.7664 128° Southeast 516 594 37,000  Level Miami Center
12:47AM 21.4489 -70.6456 128° Southeast 516 594 37,000  Level Miami Center
12:48AM 21.3583 -70.5206 128° Southeast 521 600 37,000  Level Miami Center
12:49AM 21.2678 -70.3981 128° Southeast 521 600 37,000  Level Miami Center
12:50AM 21.1833 -70.2778 127° Southeast 521 600 37,000  Level Miami Center
12:51AM 21.0947 -70.1556 128° Southeast 521 600 37,000  Level Miami Center
12:52AM 21.0058 -70.0289 127° Southeast 527 606 37,000  Level Miami Center
12:53AM 20.9150 -69.9072 129° Southeast 527 606 37,000  Level Miami Center
12:54AM 20.8261 -69.7853 128° Southeast 527 606 37,000  Level Miami Center
12:55AM 20.7392 -69.6614 127° Southeast 527 606 37,000  Level Miami Center
12:56AM 20.6503 -69.5400 128° Southeast 527 606 37,000  Level Miami Center
12:57AM 20.5589 -69.4164 128° Southeast 527 606 37,000  Level Miami Center
12:58AM 20.4697 -69.2953 128° Southeast 527 606 37,000  Level Miami Center
12:59AM 20.3825 -69.1722 127° Southeast 527 606 37,000  Level Miami Center
01:00AM 20.2889 -69.0517 130° Southeast 527 606 37,000  Level Miami Center
01:01AM 20.1817 -68.9453 137° Southeast 527 606 37,000  Level Miami Center
01:02AM 20.0783 -68.8386 136° Southeast 527 606 37,000  Level Miami Center
01:03AM 19.9750 -68.7303 135° Southeast 522 601 37,000  Level Miami Center
01:04AM 19.8628 -68.6158 136° Southeast 517 595 37,000  Level Miami Center
01:05AM 19.7556 -68.5122 138° Southeast 517 595 37,000  Level Miami Center
01:06AM 19.6458 -68.4089 138° Southeast 522 601 37,000  Level Miami Center
01:07AM 19.5383 -68.3036 137° Southeast 522 601 37,000  Level Miami Center
01:09AM 19.4333 -68.1833 133° Southeast 510 587 37,000  Level San Juan Center
01:10AM 19.3333 -68.0833 137° Southeast 520 598 37,000 -120 Level San Juan Center
01:11AM 19.2333 -67.9667 132° Southeast 510 587 36,800 -1,200 Descending San Juan Center
01:12AM 19.1167 -67.8667 141° Southeast 520 598 34,600 -2,100 Descending San Juan Center
01:13AM 19.0167 -67.7667 137° Southeast 520 598 32,600 -2,280 Descending San Juan Center
01:14AM 18.9167 -67.6500 132° Southeast 520 598 30,100 -2,340 Descending San Juan Center
01:15AM 18.8000 -67.5500 141° Southeast 510 587 28,000 -2,040 Descending San Juan Center
01:16AM 18.7167 -67.4500 131° Southeast 480 552 26,100 -1,920 Descending San Juan Center
01:17AM 18.6167 -67.3667 142° Southeast 460 529 24,200 -1,980 Descending San Juan Center
01:18AM 18.5333 -67.2667 131° Southeast 450 518 22,200 -1,920 Descending San Juan Center
01:19AM 18.4333 -67.1833 142° Southeast 430 495 20,400 -1,800 Descending San Juan Center
01:20AM 18.3500 -67.1000 136° Southeast 420 483 18,600 -1,740 Descending San Juan Center
01:21AM 18.2667 -67.0167 136° Southeast 400 460 17,000 -1,560 Descending San Juan Center
01:22AM 18.2000 -66.9500 136° Southeast 380 437 15,500 -1,560 Descending San Juan Center
01:23AM 18.1167 -66.8667 136° Southeast 370 426 13,900 -1,620 Descending San Juan Center
01:24AM 18.0500 -66.8000 136° Southeast 360 414 12,300 -1,500 Descending San Juan Center
01:25AM 17.9833 -66.7333 136° Southeast 330 380 11,000 -1,320 Descending San Juan Center
01:26AM 17.9167 -66.6667 136° Southeast 290 334 9,700 -1,380 Descending San Juan Center
01:27AM 17.8667 -66.6000 128° Southeast 290 334 8,300 -1,500 Descending San Juan Center
01:28AM 17.8500 -66.5167 102° East 270 311 6,800 -1,440 Descending San Juan Center
01:29AM 17.8500 -66.4500 90° East 240 276 5,500 -1,200 Descending San Juan Center
01:30AM 17.8667 -66.4000 71° East 190 219 4,400 -1,200 Descending San Juan Center
01:31AM 17.9167 -66.4000 360° North 200 230 3,200 -1,200 Descending San Juan Center
01:32AM 17.9667 -66.4500 316° Northwest 200 230 2,000 -1,200 Descending San Juan Center